Time;durP1;ratioP1;P1;durP2;ratioP2;P2;SDS_P1;SDS_P2;PMS_P1;PMS_P2;Temp;Humidity;BMP_temperature;BMP_pressure;BME280_temperature;BME280_humidity;BME280_pressure;Samples;Min_cycle;Max_cycle;Signal;HPM_P1;HPM_P2
2021/08/23 00:00:28;;;;;;;18.77;8.65;;;;;19.40;99779.00;;;;5047014;28;20056;-77
2021/08/23 00:02:55;;;;;;;18.38;8.70;;;;;19.20;99775.00;;;;5047493;28;20033;-80
2021/08/23 00:05:21;;;;;;;16.63;9.52;;;;;19.20;99777.00;;;;5047040;28;20021;-77
2021/08/23 00:07:48;;;;;;;16.95;10.18;;;;;19.20;99785.00;;;;5047168;28;20108;-76
2021/08/23 00:10:15;;;;;;;16.55;9.32;;;;;19.10;99797.00;;;;5045791;28;20071;-80
2021/08/23 00:12:42;;;;;;;20.67;9.45;;;;;19.10;99784.00;;;;5046795;28;20029;-80
2021/08/23 00:15:09;;;;;;;21.08;9.88;;;;;19.00;99792.00;;;;5028586;28;20120;-80
2021/08/23 00:17:36;;;;;;;17.77;9.65;;;;;19.00;99800.00;;;;5046698;28;20033;-80
2021/08/23 00:20:06;;;;;;;17.90;10.23;;;;;19.10;99810.00;;;;5046514;28;20408;-81
2021/08/23 00:22:36;;;;;;;19.60;10.20;;;;;19.10;99841.00;;;;5046444;28;20103;-78
2021/08/23 00:25:04;;;;;;;17.67;10.30;;;;;19.00;99823.00;;;;5047426;28;20053;-80
2021/08/23 00:27:31;;;;;;;21.65;10.98;;;;;19.00;99839.00;;;;5046764;28;20033;-80
2021/08/23 00:29:57;;;;;;;21.17;11.38;;;;;19.00;99829.00;;;;5046816;28;20025;-82
2021/08/23 00:32:24;;;;;;;15.15;10.43;;;;;19.00;99828.00;;;;5046986;28;20029;-78
2021/08/23 00:34:51;;;;;;;27.92;11.90;;;;;19.00;99809.00;;;;5046549;28;20056;-79
2021/08/23 00:37:17;;;;;;;24.85;10.82;;;;;18.90;99823.00;;;;5046694;28;20583;-79
2021/08/23 00:39:44;;;;;;;20.38;11.45;;;;;19.00;99820.00;;;;5046953;28;20484;-78
2021/08/23 00:42:11;;;;;;;19.90;10.93;;;;;19.00;99841.00;;;;5046853;28;20036;-81
2021/08/23 00:44:38;;;;;;;21.27;10.27;;;;;19.00;99851.00;;;;5046457;28;20025;-80
2021/08/23 00:47:08;;;;;;;15.73;10.13;;;;;19.00;99823.00;;;;5046770;28;20051;-81
2021/08/23 00:49:35;;;;;;;26.88;11.18;;;;;18.80;99851.00;;;;5046157;28;20407;-80
2021/08/23 00:52:04;;;;;;;17.90;10.85;;;;;18.70;99856.00;;;;5047333;28;20104;-77
2021/08/23 00:54:31;;;;;;;20.33;10.70;;;;;18.70;99857.00;;;;5046419;28;20031;-79
2021/08/23 00:56:58;;;;;;;18.70;11.10;;;;;18.50;99852.00;;;;5044700;28;20100;-77
2021/08/23 00:59:27;;;;;;;27.80;11.48;;;;;18.50;99868.00;;;;5045008;28;20040;-78
2021/08/23 01:01:57;;;;;;;18.58;10.70;;;;;18.50;99876.00;;;;5025501;28;20514;-79
2021/08/23 01:04:35;;;;;;;21.15;10.70;;;;;18.50;99879.00;;;;5045343;28;20029;-82
2021/08/23 01:07:10;;;;;;;22.23;11.25;;;;;18.50;99863.00;;;;5044763;28;20035;-80
2021/08/23 01:09:40;;;;;;;23.45;11.30;;;;;18.60;99884.00;;;;5046529;28;20025;-78
2021/08/23 01:12:09;;;;;;;20.27;13.32;;;;;18.60;99875.00;;;;5046245;28;20061;-78
2021/08/23 01:14:37;;;;;;;21.38;11.98;;;;;18.50;99868.00;;;;5045086;28;20032;-78
2021/08/23 01:17:06;;;;;;;22.92;11.57;;;;;18.40;99893.00;;;;5045433;28;20028;-77
2021/08/23 01:19:34;;;;;;;27.38;11.60;;;;;18.50;99879.00;;;;5045388;28;20043;-80
2021/08/23 01:22:03;;;;;;;18.20;11.23;;;;;18.50;99882.00;;;;5045779;28;20488;-81
2021/08/23 01:24:34;;;;;;;20.73;11.93;;;;;18.60;99901.00;;;;5045998;28;20402;-80
2021/08/23 01:27:04;;;;;;;17.42;11.50;;;;;18.50;99912.00;;;;5045977;28;20029;-79
2021/08/23 01:29:56;;;;;;;25.40;11.07;;;;;18.40;99922.00;;;;5045664;28;20033;-80
2021/08/23 01:32:26;;;;;;;22.48;12.65;;;;;18.40;99930.00;;;;5045178;28;20098;-79
2021/08/23 01:34:53;;;;;;;25.20;12.77;;;;;18.70;99931.00;;;;5045641;28;20044;-81
2021/08/23 01:37:21;;;;;;;17.67;11.82;;;;;18.80;99926.00;;;;5046035;28;20270;-78
2021/08/23 01:39:49;;;;;;;19.02;12.15;;;;;19.00;99967.00;;;;5045506;28;20484;-80
2021/08/23 01:42:16;;;;;;;17.77;12.00;;;;;19.50;99934.00;;;;5044841;28;20063;-77
2021/08/23 01:44:43;;;;;;;20.75;11.50;;;;;19.90;99942.00;;;;5045438;28;20036;-77
2021/08/23 01:47:10;;;;;;;18.80;11.35;;;;;19.90;99957.00;;;;5046150;28;20054;-80
2021/08/23 01:49:40;;;;;;;17.73;11.18;;;;;19.60;99948.00;;;;5044798;28;20071;-80
2021/08/23 01:52:13;;;;;;;25.25;10.93;;;;;19.30;99958.00;;;;5042760;28;20055;-79
2021/08/23 01:54:42;;;;;;;33.10;11.00;;;;;19.00;99969.00;;;;5045510;28;20029;-78
2021/08/23 01:57:11;;;;;;;18.30;10.40;;;;;18.80;99945.00;;;;5045093;28;20024;-81
2021/08/23 01:59:37;;;;;;;18.30;11.25;;;;;18.80;99947.00;;;;5046324;28;20035;-79
2021/08/23 02:02:04;;;;;;;17.42;10.77;;;;;18.80;99958.00;;;;5047267;28;20029;-78
2021/08/23 02:04:31;;;;;;;15.57;11.18;;;;;18.80;99992.00;;;;5049418;28;20102;-80
2021/08/23 02:06:57;;;;;;;18.02;10.07;;;;;18.80;99988.00;;;;5049492;28;20623;-79
2021/08/23 02:09:24;;;;;;;26.92;10.70;;;;;18.70;99998.00;;;;5047538;28;20048;-78
2021/08/23 02:11:50;;;;;;;19.73;10.93;;;;;18.50;99989.00;;;;5049770;28;20806;-80
2021/08/23 02:14:17;;;;;;;15.52;10.68;;;;;18.40;99973.00;;;;5049167;28;20515;-79
2021/08/23 02:16:43;;;;;;;28.77;10.15;;;;;18.40;100009.00;;;;5049093;28;20488;-80
2021/08/23 02:19:10;;;;;;;20.70;10.30;;;;;18.30;99987.00;;;;5049190;28;20167;-80
2021/08/23 02:21:53;;;;;;;17.02;10.02;;;;;18.40;100013.00;;;;5048725;28;20100;-80
2021/08/23 02:24:21;;;;;;;18.30;9.55;;;;;18.40;100005.00;;;;5049476;28;20029;-79
2021/08/23 02:26:48;;;;;;;12.68;9.30;;;;;18.40;100013.00;;;;5049093;28;20025;-78
2021/08/23 02:29:15;;;;;;;12.25;9.45;;;;;18.40;100042.00;;;;5049071;28;20031;-78
2021/08/23 02:31:41;;;;;;;17.38;9.65;;;;;18.50;100013.00;;;;5048558;28;20082;-80
2021/08/23 02:34:08;;;;;;;16.70;9.98;;;;;18.40;100036.00;;;;5049591;28;20554;-80
2021/08/23 02:36:35;;;;;;;13.32;9.40;;;;;18.40;100040.00;;;;5048830;28;20087;-79
2021/08/23 02:39:02;;;;;;;20.35;9.52;;;;;18.40;100028.00;;;;5049028;28;20025;-78
2021/08/23 02:41:29;;;;;;;15.30;9.70;;;;;18.30;100048.00;;;;5048745;28;20044;-80
2021/08/23 02:43:55;;;;;;;16.52;9.27;;;;;18.20;100049.00;;;;5048892;28;20109;-78
2021/08/23 02:46:22;;;;;;;18.13;9.65;;;;;18.10;100049.00;;;;5048630;28;20403;-78
2021/08/23 02:48:48;;;;;;;18.38;9.95;;;;;18.00;100040.00;;;;5048954;28;20037;-80
2021/08/23 02:51:15;;;;;;;15.00;9.82;;;;;17.90;100076.00;;;;5048557;28;20384;-80
2021/08/23 02:53:42;;;;;;;15.02;9.90;;;;;18.20;100042.00;;;;5048826;28;20029;-79
2021/08/23 02:56:08;;;;;;;15.73;8.10;;;;;18.60;100066.00;;;;5048868;28;20036;-79
2021/08/23 02:58:35;;;;;;;16.30;8.73;;;;;19.10;100048.00;;;;5048657;28;20033;-78
2021/08/23 03:01:01;;;;;;;15.43;8.60;;;;;19.40;100052.00;;;;5030023;28;20051;-80
2021/08/23 03:03:28;;;;;;;15.43;9.10;;;;;19.30;100057.00;;;;5048722;28;20029;-77
2021/08/23 03:05:54;;;;;;;26.85;9.68;;;;;19.50;100067.00;;;;5048086;28;20076;-80
2021/08/23 03:08:21;;;;;;;18.30;9.90;;;;;19.60;100081.00;;;;5048722;28;20040;-80
2021/08/23 03:10:51;;;;;;;18.08;10.18;;;;;19.70;100092.00;;;;5048138;28;20118;-78
2021/08/23 03:13:18;;;;;;;16.90;9.70;;;;;19.60;100086.00;;;;5046679;28;20021;-80
2021/08/23 03:15:45;;;;;;;20.05;9.75;;;;;19.40;100085.00;;;;5048814;28;20084;-80
2021/08/23 03:18:11;;;;;;;20.33;10.30;;;;;19.30;100099.00;;;;5048956;28;20404;-81
2021/08/23 03:20:38;;;;;;;20.02;10.73;;;;;19.10;100079.00;;;;5048336;28;20036;-78
2021/08/23 03:23:05;;;;;;;17.90;10.20;;;;;19.10;100101.00;;;;5048349;28;20040;-81
2021/08/23 03:25:31;;;;;;;26.60;11.43;;;;;19.10;100076.00;;;;5048049;28;20033;-79
2021/08/23 03:27:59;;;;;;;18.10;11.20;;;;;19.20;100117.00;;;;5047467;28;20036;-80
2021/08/23 03:30:25;;;;;;;21.42;10.43;;;;;19.10;100088.00;;;;5048388;28;20099;-78
2021/08/23 03:32:52;;;;;;;15.73;10.00;;;;;19.10;100107.00;;;;5047731;28;20393;-78
2021/08/23 03:35:18;;;;;;;16.65;10.60;;;;;18.90;100073.00;;;;5048378;28;20032;-78
2021/08/23 03:37:45;;;;;;;19.75;11.50;;;;;18.80;100108.00;;;;5047407;28;20027;-78
2021/08/23 03:40:12;;;;;;;23.05;10.90;;;;;18.80;100082.00;;;;5048212;28;20465;-79
2021/08/23 03:42:38;;;;;;;16.90;12.25;;;;;18.90;100091.00;;;;5048146;28;20033;-78
2021/08/23 03:45:06;;;;;;;17.77;11.85;;;;;19.00;100113.00;;;;5048504;28;20052;-80
2021/08/23 03:47:32;;;;;;;22.70;13.77;;;;;19.00;100086.00;;;;5047925;28;20583;-79
2021/08/23 03:49:59;;;;;;;17.55;12.50;;;;;18.90;100092.00;;;;5047430;28;20793;-79
2021/08/23 03:52:25;;;;;;;19.27;13.20;;;;;18.90;100109.00;;;;5047856;28;20025;-79
2021/08/23 03:54:52;;;;;;;19.40;14.35;;;;;18.70;100103.00;;;;5048029;28;20067;-79
2021/08/23 03:57:18;;;;;;;19.60;14.38;;;;;18.80;100091.00;;;;5048215;28;20029;-80
2021/08/23 03:59:45;;;;;;;20.60;15.05;;;;;18.70;100099.00;;;;5047876;28;20035;-80
2021/08/23 04:02:11;;;;;;;18.52;15.20;;;;;18.70;100096.00;;;;5047044;28;20021;-79
2021/08/23 04:04:38;;;;;;;18.08;15.77;;;;;18.70;100120.00;;;;5047232;28;20054;-81
2021/08/23 04:07:04;;;;;;;20.00;15.05;;;;;18.70;100134.00;;;;5048480;28;20029;-78
2021/08/23 04:09:31;;;;;;;21.05;16.25;;;;;18.60;100127.00;;;;5046984;28;20031;-81
2021/08/23 04:11:58;;;;;;;28.95;17.20;;;;;18.60;100130.00;;;;5029534;28;20730;-83
2021/08/23 04:14:25;;;;;;;29.45;17.35;;;;;18.50;100124.00;;;;5047543;28;20032;-80
2021/08/23 04:16:51;;;;;;;20.45;16.75;;;;;18.40;100121.00;;;;5029806;28;20496;-81
2021/08/23 04:19:18;;;;;;;22.20;15.93;;;;;18.40;100128.00;;;;5047055;28;20024;-82
2021/08/23 04:21:44;;;;;;;22.50;15.02;;;;;18.30;100126.00;;;;5046795;28;20654;-82
2021/08/23 04:24:11;;;;;;;22.85;15.20;;;;;18.20;100126.00;;;;5046700;28;20087;-77
2021/08/23 04:26:37;;;;;;;18.23;14.98;;;;;18.20;100138.00;;;;5046627;28;20033;-81
2021/08/23 04:29:04;;;;;;;25.58;15.63;;;;;18.20;100120.00;;;;5047082;28;20930;-78
2021/08/23 04:31:31;;;;;;;25.58;15.13;;;;;18.20;100130.00;;;;5047051;28;20032;-83
2021/08/23 04:33:58;;;;;;;24.92;16.67;;;;;18.10;100142.00;;;;5047292;28;20029;-79
2021/08/23 04:36:25;;;;;;;22.02;16.98;;;;;18.00;100127.00;;;;5046778;28;20105;-81
2021/08/23 04:38:52;;;;;;;23.48;17.15;;;;;18.00;100120.00;;;;5027951;28;20044;-79
2021/08/23 04:41:18;;;;;;;23.42;17.05;;;;;17.90;100120.00;;;;5047139;28;20140;-82
2021/08/23 04:43:45;;;;;;;23.23;17.08;;;;;17.80;100112.00;;;;5047067;28;20025;-81
2021/08/23 04:46:11;;;;;;;24.13;17.23;;;;;17.80;100124.00;;;;5046849;28;20053;-79
2021/08/23 04:48:38;;;;;;;23.77;16.80;;;;;17.70;100142.00;;;;5046475;28;20399;-79
2021/08/23 04:51:06;;;;;;;22.55;17.63;;;;;17.60;100124.00;;;;5046916;28;20502;-79
2021/08/23 04:53:33;;;;;;;21.98;16.27;;;;;17.60;100145.00;;;;5046404;28;20397;-80
2021/08/23 04:56:00;;;;;;;27.63;16.42;;;;;17.60;100106.00;;;;5046408;28;20040;-79
2021/08/23 04:58:26;;;;;;;17.77;15.68;;;;;17.50;100110.00;;;;5047006;28;20086;-81
2021/08/23 05:00:53;;;;;;;21.40;16.05;;;;;17.50;100110.00;;;;5046769;28;20586;-77
2021/08/23 05:03:19;;;;;;;18.98;14.88;;;;;17.50;100139.00;;;;5046053;28;20077;-80
2021/08/23 05:05:48;;;;;;;21.65;15.88;;;;;17.50;100125.00;;;;5046429;28;20039;-78
2021/08/23 05:08:20;;;;;;;17.00;14.98;;;;;17.50;100134.00;;;;5046719;28;20029;-81
2021/08/23 05:10:48;;;;;;;21.70;14.00;;;;;17.50;100127.00;;;;5045607;28;20036;-78
2021/08/23 05:13:14;;;;;;;17.45;14.40;;;;;17.50;100140.00;;;;5046077;28;20052;-78
2021/08/23 05:15:41;;;;;;;21.92;14.60;;;;;17.50;100142.00;;;;5046330;28;20086;-81
2021/08/23 05:18:07;;;;;;;16.67;13.65;;;;;17.40;100146.00;;;;5046488;28;20024;-78
2021/08/23 05:20:34;;;;;;;20.85;15.10;;;;;17.30;100133.00;;;;5045989;28;20421;-79
2021/08/23 05:23:02;;;;;;;22.77;14.57;;;;;17.30;100126.00;;;;5046225;28;20035;-79
2021/08/23 05:25:28;;;;;;;21.63;14.82;;;;;17.30;100158.00;;;;5046483;28;20484;-79
2021/08/23 05:27:55;;;;;;;23.75;15.63;;;;;17.30;100128.00;;;;5046140;28;20025;-80
2021/08/23 05:30:21;;;;;;;19.27;14.63;;;;;17.30;100131.00;;;;5045809;28;20032;-81
2021/08/23 05:32:48;;;;;;;23.05;14.32;;;;;17.20;100134.00;;;;5045973;28;20100;-80
2021/08/23 05:35:14;;;;;;;23.90;14.85;;;;;17.20;100144.00;;;;5046608;28;20583;-81
2021/08/23 05:37:43;;;;;;;18.15;14.70;;;;;17.10;100153.00;;;;5050163;28;20032;-80
2021/08/23 05:40:10;;;;;;;18.98;14.82;;;;;17.20;100158.00;;;;5050112;28;20124;-79
2021/08/23 05:42:37;;;;;;;15.85;14.02;;;;;17.20;100151.00;;;;5050436;28;20053;-81
2021/08/23 05:45:04;;;;;;;16.75;13.93;;;;;17.20;100164.00;;;;5050281;28;20492;-79
2021/08/23 05:47:31;;;;;;;16.50;14.10;;;;;17.10;100149.00;;;;5049719;28;20688;-80
2021/08/23 05:49:57;;;;;;;16.38;14.05;;;;;17.00;100167.00;;;;5050453;28;20472;-79
2021/08/23 05:52:24;;;;;;;18.95;14.25;;;;;17.00;100134.00;;;;5032347;28;20079;-81
2021/08/23 05:54:50;;;;;;;16.83;14.23;;;;;17.00;100126.00;;;;5049759;28;20207;-80
2021/08/23 05:57:17;;;;;;;19.73;14.57;;;;;17.00;100149.00;;;;5049772;28;20035;-80
2021/08/23 05:59:43;;;;;;;19.95;14.77;;;;;17.00;100131.00;;;;5049381;28;20488;-79
2021/08/23 06:02:10;;;;;;;17.38;13.80;;;;;16.90;100123.00;;;;5049429;28;20348;-80
2021/08/23 06:04:37;;;;;;;18.05;13.35;;;;;16.90;100120.00;;;;5032010;28;20033;-81
2021/08/23 06:07:09;;;;;;;18.67;13.55;;;;;16.80;100146.00;;;;5049865;28;20551;-80
2021/08/23 06:09:36;;;;;;;17.25;13.60;;;;;16.70;100162.00;;;;5049882;28;20029;-79
2021/08/23 06:12:03;;;;;;;20.52;14.40;;;;;16.60;100138.00;;;;5050118;28;20021;-80
2021/08/23 06:14:30;;;;;;;22.40;13.60;;;;;16.60;100149.00;;;;5049238;28;20028;-79
2021/08/23 06:16:56;;;;;;;15.38;12.95;;;;;16.60;100147.00;;;;5049742;28;20036;-80
2021/08/23 06:19:23;;;;;;;20.02;13.90;;;;;16.70;100128.00;;;;5049309;28;20430;-80
2021/08/23 06:21:49;;;;;;;14.20;12.60;;;;;16.70;100127.00;;;;5049680;28;20136;-80
2021/08/23 06:24:16;;;;;;;17.30;13.02;;;;;16.70;100147.00;;;;5049130;28;20039;-79
2021/08/23 06:26:42;;;;;;;16.98;13.10;;;;;16.70;100119.00;;;;5049443;28;20036;-78
2021/08/23 06:29:09;;;;;;;21.67;12.55;;;;;16.70;100123.00;;;;5049238;28;20049;-80
2021/08/23 06:31:38;;;;;;;17.92;12.95;;;;;16.70;100115.00;;;;5048944;28;20129;-79
2021/08/23 06:34:05;;;;;;;15.73;12.77;;;;;16.90;100114.00;;;;5049649;28;20025;-80
2021/08/23 06:36:35;;;;;;;19.45;13.02;;;;;16.90;100151.00;;;;5049461;28;20092;-78
2021/08/23 06:39:02;;;;;;;17.10;12.30;;;;;16.90;100146.00;;;;5049137;28;20025;-80
2021/08/23 06:41:29;;;;;;;14.40;13.00;;;;;17.00;100141.00;;;;5049508;28;20048;-80
2021/08/23 06:43:56;;;;;;;20.08;13.40;;;;;17.00;100091.00;;;;5048937;28;20496;-79
2021/08/23 06:46:22;;;;;;;15.93;12.50;;;;;17.00;100140.00;;;;5048777;28;20025;-78
2021/08/23 06:48:49;;;;;;;18.60;12.45;;;;;17.10;100105.00;;;;5049304;28;20373;-80
2021/08/23 06:51:20;;;;;;;18.42;14.25;;;;;17.10;100108.00;;;;5049150;28;20494;-79
2021/08/23 06:53:47;;;;;;;;;;;;;17.10;100134.00;;;;5049614;28;20025;-79
2021/08/23 06:56:14;;;;;;;18.20;12.40;;;;;17.10;100124.00;;;;5048539;28;19920;-79
2021/08/23 06:58:41;;;;;;;15.45;12.65;;;;;17.10;100120.00;;;;5049219;28;20611;-79
2021/08/23 07:01:08;;;;;;;17.70;12.85;;;;;17.10;100114.00;;;;5048559;28;20028;-79
2021/08/23 07:03:37;;;;;;;16.35;13.43;;;;;17.10;100097.00;;;;5049073;28;20128;-79
2021/08/23 07:06:04;;;;;;;15.32;13.05;;;;;17.10;100114.00;;;;5049137;28;20033;-77
2021/08/23 07:08:30;;;;;;;18.92;12.60;;;;;17.10;100115.00;;;;5049752;28;20021;-78
2021/08/23 07:10:58;;;;;;;18.00;12.27;;;;;17.00;100121.00;;;;5048424;28;20029;-79
2021/08/23 07:13:24;;;;;;;16.65;12.82;;;;;17.00;100125.00;;;;5048853;28;20028;-78
2021/08/23 07:15:51;;;;;;;15.98;12.98;;;;;17.00;100125.00;;;;5048942;28;20076;-79
2021/08/23 07:18:18;;;;;;;16.38;12.88;;;;;17.00;100112.00;;;;5048845;28;20104;-79
2021/08/23 07:20:44;;;;;;;17.30;13.02;;;;;17.00;100106.00;;;;5048379;28;20523;-79
2021/08/23 07:23:11;;;;;;;17.67;13.45;;;;;17.00;100117.00;;;;5048629;28;20032;-78
2021/08/23 07:25:37;;;;;;;18.00;13.40;;;;;17.00;100127.00;;;;5048103;28;20032;-78
2021/08/23 07:28:04;;;;;;;18.50;11.93;;;;;17.00;100133.00;;;;5048188;28;20102;-79
2021/08/23 07:30:30;;;;;;;18.20;12.55;;;;;17.00;100138.00;;;;5048733;28;20025;-78
2021/08/23 07:32:57;;;;;;;18.15;12.70;;;;;17.00;100138.00;;;;5048659;28;20025;-79
2021/08/23 07:35:23;;;;;;;16.98;12.30;;;;;17.00;100138.00;;;;5048166;28;20032;-79
2021/08/23 07:37:50;;;;;;;15.55;12.57;;;;;17.00;100158.00;;;;5047836;28;20033;-79
2021/08/23 07:40:17;;;;;;;18.95;13.57;;;;;17.00;100174.00;;;;5047637;28;20060;-79
2021/08/23 07:42:44;;;;;;;15.95;13.27;;;;;17.00;100165.00;;;;5048338;28;20065;-79
2021/08/23 07:45:13;;;;;;;15.10;12.90;;;;;17.00;100186.00;;;;5047574;28;20108;-80
2021/08/23 07:47:42;;;;;;;16.80;13.18;;;;;16.90;100150.00;;;;5029515;28;20120;-79
2021/08/23 07:50:09;;;;;;;19.65;13.63;;;;;16.90;100185.00;;;;5047671;28;20040;-78
2021/08/23 07:52:36;;;;;;;18.42;12.68;;;;;16.90;100182.00;;;;5047672;28;20040;-78
2021/08/23 07:55:03;;;;;;;16.17;12.80;;;;;16.90;100157.00;;;;5047954;28;20061;-79
2021/08/23 07:57:30;;;;;;;19.98;13.95;;;;;16.90;100172.00;;;;5029520;28;20040;-79
2021/08/23 07:59:56;;;;;;;17.65;13.10;;;;;16.80;100145.00;;;;5047778;28;20032;-79
2021/08/23 08:02:23;;;;;;;18.27;13.43;;;;;16.80;100149.00;;;;5048204;28;20067;-80
2021/08/23 08:04:50;;;;;;;18.90;13.95;;;;;16.80;100128.00;;;;5047698;28;20425;-79
2021/08/23 08:07:17;;;;;;;18.58;14.07;;;;;16.70;100163.00;;;;5047509;28;20072;-80
2021/08/23 08:09:43;;;;;;;22.27;15.35;;;;;16.70;100161.00;;;;5047288;28;20032;-79
2021/08/23 08:12:10;;;;;;;20.55;15.55;;;;;16.60;100129.00;;;;5048072;28;20051;-80
2021/08/23 08:14:36;;;;;;;17.92;15.77;;;;;16.60;100180.00;;;;5047553;28;20060;-80
2021/08/23 08:17:03;;;;;;;21.70;15.27;;;;;16.60;100186.00;;;;5047438;28;20029;-79
2021/08/23 08:19:30;;;;;;;26.33;16.15;;;;;16.60;100180.00;;;;5046697;28;20033;-79
2021/08/23 08:21:58;;;;;;;18.98;15.10;;;;;16.60;100171.00;;;;5047114;28;20033;-79
2021/08/23 08:24:25;;;;;;;16.85;14.98;;;;;16.70;100169.00;;;;5047528;28;20071;-77
2021/08/23 08:26:52;;;;;;;21.52;16.05;;;;;16.70;100153.00;;;;5029794;28;20072;-79
2021/08/23 08:29:18;;;;;;;22.42;15.80;;;;;16.60;100169.00;;;;5047225;28;20112;-79
2021/08/23 08:31:46;;;;;;;22.40;15.50;;;;;16.60;100160.00;;;;5047123;28;20515;-81
2021/08/23 08:34:13;;;;;;;24.45;15.38;;;;;16.60;100152.00;;;;5047181;28;20400;-78
2021/08/23 08:36:39;;;;;;;21.05;14.30;;;;;16.60;100175.00;;;;5047723;28;20028;-78
2021/08/23 08:39:06;;;;;;;19.35;14.38;;;;;16.60;100177.00;;;;5046432;28;20033;-79
2021/08/23 08:41:33;;;;;;;19.40;14.60;;;;;16.50;100174.00;;;;5047017;28;20052;-78
2021/08/23 08:44:04;;;;;;;20.02;15.05;;;;;16.50;100172.00;;;;5047247;28;20025;-81
2021/08/23 08:46:34;;;;;;;22.17;15.05;;;;;16.50;100187.00;;;;5046987;28;20037;-80
2021/08/23 08:49:04;;;;;;;16.27;13.57;;;;;16.60;100194.00;;;;5046904;28;20037;-76
2021/08/23 08:51:35;;;;;;;17.52;13.65;;;;;16.50;100191.00;;;;5046697;28;20040;-79
2021/08/23 08:54:03;;;;;;;;;;;;;16.60;100192.00;;;;5047353;28;20039;-76
2021/08/23 08:56:31;;;;;;;23.17;13.38;;;;;16.50;100209.00;;;;5047078;28;19923;-76
2021/08/23 08:58:58;;;;;;;23.08;13.68;;;;;16.50;100222.00;;;;5047411;28;20036;-81
2021/08/23 09:01:25;;;;;;;17.40;13.32;;;;;16.50;100190.00;;;;5046434;28;20035;-79
2021/08/23 09:03:52;;;;;;;14.80;12.25;;;;;16.50;100211.00;;;;5046660;28;20404;-78
2021/08/23 09:06:20;;;;;;;17.17;12.95;;;;;16.40;100199.00;;;;5046679;28;20112;-80
2021/08/23 09:08:47;;;;;;;20.45;12.50;;;;;16.40;100193.00;;;;5046642;28;20036;-79
2021/08/23 09:11:20;;;;;;;18.67;13.27;;;;;16.40;100194.00;;;;5045209;28;20519;-79
2021/08/23 09:14:06;;;;;;;15.27;12.23;;;;;16.40;100191.00;;;;5046090;28;20040;-78
2021/08/23 09:16:36;;;;;;;19.27;12.38;;;;;16.40;100199.00;;;;5047487;28;20021;-80
2021/08/23 09:19:03;;;;;;;16.27;12.07;;;;;16.40;100219.00;;;;5046997;28;20541;-81
2021/08/23 09:21:33;;;;;;;17.85;11.52;;;;;16.30;100231.00;;;;5028670;28;20039;-77
2021/08/23 09:24:00;;;;;;;17.20;11.32;;;;;16.30;100189.00;;;;5046458;28;20041;-80
2021/08/23 09:26:32;;;;;;;22.83;12.00;;;;;16.30;100214.00;;;;5045995;28;20058;-78
2021/08/23 09:29:06;;;;;;;20.13;11.40;;;;;16.30;100235.00;;;;5046027;28;20021;-80
2021/08/23 09:31:35;;;;;;;17.75;12.45;;;;;16.30;100224.00;;;;5046072;28;20344;-76
2021/08/23 09:34:07;;;;;;;16.55;11.38;;;;;16.30;100243.00;;;;5046226;28;20069;-80
2021/08/23 09:36:34;;;;;;;16.67;11.77;;;;;16.30;100250.00;;;;5045776;28;20033;-80
2021/08/23 09:39:12;;;;;;;17.65;11.65;;;;;16.20;100258.00;;;;5045800;28;20078;-83
2021/08/23 09:41:42;;;;;;;19.08;12.18;;;;;16.20;100259.00;;;;5046146;28;20057;-80
2021/08/23 09:44:14;;;;;;;19.88;12.32;;;;;16.20;100241.00;;;;5047021;28;20357;-77
2021/08/23 09:46:44;;;;;;;16.65;12.02;;;;;16.20;100230.00;;;;5045666;28;20151;-78
2021/08/23 09:49:12;;;;;;;16.20;11.30;;;;;16.20;100230.00;;;;5023898;28;20746;-79
2021/08/23 09:51:41;;;;;;;18.02;11.43;;;;;16.10;100233.00;;;;5044055;28;20124;-78
2021/08/23 09:54:12;;;;;;;16.95;10.27;;;;;16.20;100209.00;;;;5045807;28;20044;-77
2021/08/23 09:56:55;;;;;;;13.82;10.05;;;;;16.10;100229.00;;;;5045854;28;20056;-81
2021/08/23 09:59:26;;;;;;;21.48;10.00;;;;;16.10;100218.00;;;;5045590;28;20633;-79
2021/08/23 10:01:54;;;;;;;;;;;;;16.10;100236.00;;;;5046036;28;20029;-81
2021/08/23 10:04:22;;;;;;;19.00;10.43;;;;;16.10;100229.00;;;;5045585;28;19967;-81
2021/08/23 10:06:51;;;;;;;16.85;10.68;;;;;16.10;100209.00;;;;5045131;28;20039;-82
2021/08/23 10:09:23;;;;;;;16.00;10.55;;;;;16.00;100215.00;;;;5045876;28;20021;-79
2021/08/23 10:11:51;;;;;;;21.70;10.57;;;;;16.00;100219.00;;;;5046195;28;20033;-82
2021/08/23 10:14:19;;;;;;;13.50;10.10;;;;;16.00;100215.00;;;;5045198;28;20029;-79
2021/08/23 10:16:46;;;;;;;22.55;12.30;;;;;16.00;100245.00;;;;5045452;28;20472;-81
2021/08/23 10:19:13;;;;;;;21.92;12.05;;;;;16.00;100231.00;;;;5045758;28;20025;-77
2021/08/23 10:21:45;;;;;;;23.50;11.20;;;;;15.90;100241.00;;;;5046065;28;20488;-80
2021/08/23 10:24:27;;;;;;;17.10;11.02;;;;;15.90;100230.00;;;;5047366;28;20029;-79
2021/08/23 10:26:55;;;;;;;18.35;10.90;;;;;15.90;100239.00;;;;5048356;28;20588;-79
2021/08/23 10:29:22;;;;;;;21.05;11.20;;;;;15.90;100263.00;;;;5049857;28;20029;-80
2021/08/23 10:31:49;;;;;;;17.13;10.63;;;;;15.90;100261.00;;;;5049277;28;20091;-81
2021/08/23 10:34:17;;;;;;;18.10;9.48;;;;;15.80;100291.00;;;;5049598;28;20029;-80
2021/08/23 10:36:45;;;;;;;23.05;11.85;;;;;15.80;100274.00;;;;5049628;28;20032;-81
2021/08/23 10:39:19;;;;;;;23.50;8.80;;;;;15.80;100293.00;;;;5048274;28;20120;-80
2021/08/23 10:41:46;;;;;;;17.08;9.02;;;;;15.80;100269.00;;;;5031239;28;20102;-80
2021/08/23 10:44:23;;;;;;;20.80;9.27;;;;;15.80;100298.00;;;;5049023;28;20033;-80
2021/08/23 10:46:49;;;;;;;17.35;7.93;;;;;15.70;100276.00;;;;5049598;28;20033;-80
2021/08/23 10:49:17;;;;;;;16.27;8.88;;;;;15.70;100276.00;;;;5049397;28;20033;-80
2021/08/23 10:51:55;;;;;;;15.68;7.80;;;;;15.70;100311.00;;;;5048943;28;20052;-79
2021/08/23 10:54:35;;;;;;;16.48;8.88;;;;;15.60;100320.00;;;;5048676;28;20064;-80
2021/08/23 10:57:02;;;;;;;21.23;7.68;;;;;15.60;100335.00;;;;5049486;28;20024;-79
2021/08/23 10:59:49;;;;;;;14.27;8.48;;;;;15.60;100339.00;;;;5048665;28;20032;-82
2021/08/23 11:02:38;;;;;;;16.15;8.30;;;;;15.60;100335.00;;;;5049000;28;20029;-79
2021/08/23 11:05:19;;;;;;;16.95;8.70;;;;;15.60;100338.00;;;;5049050;28;20025;-80
2021/08/23 11:07:59;;;;;;;18.92;9.10;;;;;15.60;100344.00;;;;5048645;28;20048;-78
2021/08/23 11:10:27;;;;;;;11.70;7.80;;;;;15.60;100349.00;;;;5048568;28;20573;-81
2021/08/23 11:13:14;;;;;;;15.40;8.30;;;;;15.50;100390.00;;;;5048395;28;20472;-79
2021/08/23 11:15:41;;;;;;;13.93;8.35;;;;;15.50;100366.00;;;;5049273;28;20389;-82
2021/08/23 11:18:12;;;;;;;15.82;9.05;;;;;15.40;100362.00;;;;5048234;28;20481;-79
2021/08/23 11:20:41;;;;;;;19.95;9.68;;;;;15.40;100389.00;;;;5048678;28;20104;-78
2021/08/23 11:23:17;;;;;;;18.13;9.27;;;;;15.40;100417.00;;;;5047776;28;20075;-80
2021/08/23 11:25:50;;;;;;;16.33;8.90;;;;;15.40;100426.00;;;;5048379;28;20493;-78
2021/08/23 11:28:19;;;;;;;19.33;8.90;;;;;15.30;100416.00;;;;5048321;28;20127;-85
2021/08/23 11:30:48;;;;;;;18.83;8.27;;;;;15.40;100382.00;;;;5048777;28;20144;-82
2021/08/23 11:33:31;;;;;;;15.30;8.23;;;;;15.30;100396.00;;;;5046767;28;20518;-81
2021/08/23 11:36:00;;;;;;;12.45;7.60;;;;;15.30;100405.00;;;;5048281;28;20028;-81
2021/08/23 11:38:29;;;;;;;18.15;9.10;;;;;15.40;100412.00;;;;5047975;28;20052;-80
2021/08/23 11:40:56;;;;;;;19.98;7.38;;;;;15.30;100401.00;;;;5047648;28;20412;-80
2021/08/23 11:43:28;;;;;;;14.25;7.18;;;;;15.30;100409.00;;;;5047610;28;20078;-83
2021/08/23 11:45:57;;;;;;;18.27;7.32;;;;;15.30;100403.00;;;;5047965;28;20032;-79
2021/08/23 11:48:23;;;;;;;12.88;6.97;;;;;15.30;100394.00;;;;5047795;28;20485;-79
2021/08/23 11:50:50;;;;;;;10.88;6.38;;;;;15.40;100399.00;;;;5047990;28;20025;-79
2021/08/23 11:53:18;;;;;;;12.73;6.88;;;;;15.40;100400.00;;;;5029305;28;20120;-78
2021/08/23 11:55:46;;;;;;;12.85;5.88;;;;;15.40;100403.00;;;;5048668;28;20097;-80
2021/08/23 11:58:19;;;;;;;11.15;6.80;;;;;15.50;100410.00;;;;5047626;28;20032;-80